Time;durP1;ratioP1;P1;durP2;ratioP2;P2;SDS_P1;SDS_P2;PMS_P1;PMS_P2;Temp;Humidity;BMP_temperature;BMP_pressure;BME280_temperature;BME280_humidity;BME280_pressure;Samples;Min_cycle;Max_cycle;Signal;HPM_P1;HPM_P2
2021/04/27 00:01:13;;;;;;;12.73;8.07;;;;;;;;;;5071350;28;20907;-55
2021/04/27 00:03:39;;;;;;;13.80;7.17;;;;;;;;;;5071126;28;20823;-55
2021/04/27 00:06:05;;;;;;;8.38;6.05;;;;;;;;;;5071400;28;20503;-54
2021/04/27 00:08:31;;;;;;;7.90;6.60;;;;;;;;;;5071250;28;20211;-55
2021/04/27 00:10:58;;;;;;;9.20;6.75;;;;;;;;;;5070935;28;20288;-54
2021/04/27 00:13:24;;;;;;;12.88;6.70;;;;;;;;;;5071151;28;20654;-54
2021/04/27 00:15:50;;;;;;;12.35;6.80;;;;;;;;;;5070250;28;20175;-55
2021/04/27 00:18:16;;;;;;;9.40;6.80;;;;;;;;;;5070983;28;20776;-55
2021/04/27 00:20:42;;;;;;;10.73;7.60;;;;;;;;;;5070787;28;20781;-54
2021/04/27 00:23:08;;;;;;;12.87;7.33;;;;;;;;;;5070992;28;20463;-54
2021/04/27 00:25:36;;;;;;;7.93;7.13;;;;;;;;;;5071150;28;20399;-54
2021/04/27 00:28:03;;;;;;;7.65;6.95;;;;;;;;;;5070890;28;20466;-55
2021/04/27 00:30:29;;;;;;;9.38;6.90;;;;;;;;;;5070667;28;20175;-55
2021/04/27 00:32:56;;;;;;;12.05;7.28;;;;;;;;;;5070891;28;20182;-55
2021/04/27 00:35:22;;;;;;;8.50;6.85;;;;;;;;;;5070911;28;20649;-54
2021/04/27 00:37:48;;;;;;;8.20;7.10;;;;;;;;;;5070720;28;20209;-54
2021/04/27 00:40:15;;;;;;;10.38;6.68;;;;;;;;;;5070748;28;20178;-55
2021/04/27 00:42:42;;;;;;;8.90;6.60;;;;;;;;;;5070729;28;20166;-55
2021/04/27 00:45:10;;;;;;;10.65;7.57;;;;;;;;;;5070813;28;20254;-55
2021/04/27 00:47:36;;;;;;;7.05;6.40;;;;;;;;;;5070905;28;20262;-54
2021/04/27 00:50:04;;;;;;;8.35;7.30;;;;;;;;;;5070969;28;20243;-54
2021/04/27 00:52:31;;;;;;;6.97;6.38;;;;;;;;;;5071109;28;20563;-55
2021/04/27 00:54:57;;;;;;;7.78;6.65;;;;;;;;;;5071041;28;20517;-55
2021/04/27 00:57:23;;;;;;;8.97;6.53;;;;;;;;;;5070696;28;20331;-54
2021/04/27 00:59:51;;;;;;;14.68;7.25;;;;;;;;;;5070606;28;20457;-55
2021/04/27 01:02:17;;;;;;;10.05;6.40;;;;;;;;;;5070055;28;20256;-54
2021/04/27 01:04:43;;;;;;;8.30;7.17;;;;;;;;;;5069927;28;20289;-55
2021/04/27 01:07:12;;;;;;;10.95;6.18;;;;;;;;;;5070277;28;20491;-54
2021/04/27 01:09:43;;;;;;;8.00;6.90;;;;;;;;;;5070379;28;20173;-54
2021/04/27 01:12:12;;;;;;;7.18;6.20;;;;;;;;;;5070499;28;20170;-55
2021/04/27 01:14:39;;;;;;;9.70;7.00;;;;;;;;;;5070509;28;20178;-54
2021/04/27 01:17:07;;;;;;;8.88;6.55;;;;;;;;;;5070446;28;20166;-54
2021/04/27 01:19:40;;;;;;;13.05;6.70;;;;;;;;;;5070311;28;20208;-54
2021/04/27 01:22:09;;;;;;;8.32;7.20;;;;;;;;;;5070378;28;20166;-54
2021/04/27 01:24:49;;;;;;;9.38;6.28;;;;;;;;;;5070363;28;20201;-54
2021/04/27 01:27:16;;;;;;;8.68;6.88;;;;;;;;;;5070875;28;20861;-54
2021/04/27 01:29:42;;;;;;;11.00;6.57;;;;;;;;;;5074098;28;20240;-55
2021/04/27 01:32:08;;;;;;;8.95;6.72;;;;;;;;;;5074216;28;20162;-54
2021/04/27 01:34:37;;;;;;;12.40;7.50;;;;;;;;;;5074234;28;20681;-55
2021/04/27 01:37:04;;;;;;;12.07;6.85;;;;;;;;;;5073870;28;20440;-55
2021/04/27 01:39:31;;;;;;;10.27;7.85;;;;;;;;;;5073785;28;20219;-55
2021/04/27 01:41:58;;;;;;;12.20;7.15;;;;;;;;;;5074029;28;20189;-55
2021/04/27 01:44:25;;;;;;;8.90;8.00;;;;;;;;;;5073959;28;20372;-54
2021/04/27 01:46:51;;;;;;;8.98;7.57;;;;;;;;;;5073858;28;20170;-54
2021/04/27 01:49:18;;;;;;;7.88;7.07;;;;;;;;;;5073566;28;20186;-55
2021/04/27 01:51:44;;;;;;;8.20;7.20;;;;;;;;;;5073807;28;20159;-55
2021/04/27 01:54:10;;;;;;;7.47;6.65;;;;;;;;;;5073840;28;20174;-55
2021/04/27 01:56:37;;;;;;;12.05;7.75;;;;;;;;;;5073675;28;20178;-54
2021/04/27 01:59:04;;;;;;;12.50;8.18;;;;;;;;;;5073511;28;20612;-54
2021/04/27 02:01:30;;;;;;;13.40;7.45;;;;;;;;;;5073827;28;20170;-55
2021/04/27 02:03:56;;;;;;;11.13;8.63;;;;;;;;;;5073588;28;20846;-54
2021/04/27 02:06:22;;;;;;;13.27;8.70;;;;;;;;;;5073612;28;20395;-54
2021/04/27 02:08:52;;;;;;;9.33;7.33;;;;;;;;;;5073114;28;20427;-54
2021/04/27 02:11:18;;;;;;;11.32;7.60;;;;;;;;;;5073490;28;20487;-55
2021/04/27 02:13:44;;;;;;;12.27;7.43;;;;;;;;;;5073466;28;20170;-55
2021/04/27 02:16:11;;;;;;;13.07;9.20;;;;;;;;;;5073539;28;20231;-54
2021/04/27 02:18:39;;;;;;;8.27;7.45;;;;;;;;;;5073150;28;20860;-54
2021/04/27 02:21:05;;;;;;;12.30;8.05;;;;;;;;;;5073298;28;20563;-54
2021/04/27 02:23:32;;;;;;;9.10;7.05;;;;;;;;;;5073153;28;20190;-54
2021/04/27 02:25:59;;;;;;;12.10;8.10;;;;;;;;;;5073334;28;20164;-55
2021/04/27 02:28:25;;;;;;;10.63;8.10;;;;;;;;;;5073149;28;20688;-54
2021/04/27 02:30:51;;;;;;;8.38;7.50;;;;;;;;;;5073008;28;20579;-54
2021/04/27 02:33:18;;;;;;;11.90;8.27;;;;;;;;;;5073093;28;20543;-54
2021/04/27 02:35:44;;;;;;;8.82;7.55;;;;;;;;;;5073107;28;20641;-54
2021/04/27 02:38:11;;;;;;;10.85;8.15;;;;;;;;;;5072929;28;20197;-54
2021/04/27 02:40:38;;;;;;;18.30;8.98;;;;;;;;;;5071937;28;20170;-54
2021/04/27 02:43:03;;;;;;;18.50;9.00;;;;;;;;;;5072875;28;20189;-54
2021/04/27 02:45:32;;;;;;;12.00;8.23;;;;;;;;;;5073009;28;20645;-54
2021/04/27 02:48:11;;;;;;;13.35;8.73;;;;;;;;;;5072834;28;20421;-55
2021/04/27 02:50:39;;;;;;;10.00;8.02;;;;;;;;;;5072800;28;20170;-54
2021/04/27 02:53:05;;;;;;;12.25;8.02;;;;;;;;;;5072806;28;20169;-54
2021/04/27 02:55:32;;;;;;;8.77;7.22;;;;;;;;;;5072873;28;20796;-54
2021/04/27 02:57:58;;;;;;;7.53;6.80;;;;;;;;;;5072591;28;20192;-55
2021/04/27 03:00:24;;;;;;;7.15;6.43;;;;;;;;;;5072452;28;20179;-55
2021/04/27 03:02:50;;;;;;;8.45;6.20;;;;;;;;;;5072512;28;20164;-54
2021/04/27 03:05:17;;;;;;;8.10;6.17;;;;;;;;;;5072570;28;20213;-54
2021/04/27 03:07:42;;;;;;;7.80;6.05;;;;;;;;;;5072468;28;20486;-54
2021/04/27 03:10:09;;;;;;;7.20;5.20;;;;;;;;;;5072148;28;20685;-55
2021/04/27 03:12:35;;;;;;;5.30;4.80;;;;;;;;;;5072325;28;20434;-54
2021/04/27 03:15:01;;;;;;;6.13;5.53;;;;;;;;;;5072316;28;20588;-54
2021/04/27 03:17:28;;;;;;;6.22;5.65;;;;;;;;;;5072131;28;20760;-54
2021/04/27 03:19:54;;;;;;;10.85;5.78;;;;;;;;;;5071986;28;20644;-54
2021/04/27 03:22:20;;;;;;;8.10;6.07;;;;;;;;;;5072179;28;20176;-54
2021/04/27 03:24:46;;;;;;;9.55;5.80;;;;;;;;;;5072108;28;20440;-54
2021/04/27 03:27:12;;;;;;;11.50;6.00;;;;;;;;;;5072042;28;20217;-54
2021/04/27 03:29:38;;;;;;;6.30;5.70;;;;;;;;;;5071747;28;20392;-54
2021/04/27 03:32:04;;;;;;;8.27;5.30;;;;;;;;;;5071946;28;20397;-54
2021/04/27 03:34:30;;;;;;;7.95;6.05;;;;;;;;;;5071818;28;20407;-54
2021/04/27 03:36:56;;;;;;;6.90;5.68;;;;;;;;;;5071896;28;20258;-54
2021/04/27 03:39:22;;;;;;;8.70;5.83;;;;;;;;;;5071759;28;20285;-53
2021/04/27 03:41:48;;;;;;;7.03;5.32;;;;;;;;;;5071828;28;20493;-52
2021/04/27 03:44:14;;;;;;;8.32;6.47;;;;;;;;;;5071584;28;20273;-52
2021/04/27 03:46:40;;;;;;;6.93;5.43;;;;;;;;;;5071625;28;20186;-54
2021/04/27 03:49:09;;;;;;;6.17;5.57;;;;;;;;;;5071272;28;20419;-54
2021/04/27 03:51:35;;;;;;;8.20;5.55;;;;;;;;;;5071378;28;20896;-53
2021/04/27 03:54:02;;;;;;;7.03;5.33;;;;;;;;;;5053540;28;20186;-54
2021/04/27 03:56:28;;;;;;;6.30;4.80;;;;;;;;;;5071629;28;20415;-52
2021/04/27 03:58:54;;;;;;;5.28;4.78;;;;;;;;;;5071125;28;20230;-52
2021/04/27 04:01:20;;;;;;;7.50;5.95;;;;;;;;;;5071408;28;20196;-52
2021/04/27 04:03:46;;;;;;;7.27;5.80;;;;;;;;;;5071294;28;20675;-52
2021/04/27 04:06:12;;;;;;;9.23;5.50;;;;;;;;;;5071463;28;20443;-52
2021/04/27 04:08:38;;;;;;;5.80;5.05;;;;;;;;;;5071059;28;20762;-52
2021/04/27 04:11:04;;;;;;;8.63;4.83;;;;;;;;;;5071190;28;20189;-52
2021/04/27 04:13:32;;;;;;;9.05;6.22;;;;;;;;;;5071161;28;20435;-55
2021/04/27 04:15:58;;;;;;;7.45;4.97;;;;;;;;;;5071651;28;20316;-52
2021/04/27 04:18:24;;;;;;;7.90;5.20;;;;;;;;;;5071136;28;20721;-53
2021/04/27 04:20:50;;;;;;;6.77;5.37;;;;;;;;;;5070977;28;20788;-55
2021/04/27 04:23:17;;;;;;;11.45;6.00;;;;;;;;;;5071244;28;20771;-53
2021/04/27 04:25:43;;;;;;;5.47;4.97;;;;;;;;;;5071301;28;20629;-52
2021/04/27 04:28:10;;;;;;;5.40;4.90;;;;;;;;;;5071261;28;20390;-52
2021/04/27 04:30:36;;;;;;;6.45;4.70;;;;;;;;;;5070976;28;20810;-52
2021/04/27 04:33:03;;;;;;;5.85;4.55;;;;;;;;;;5071342;28;20174;-55
2021/04/27 04:35:31;;;;;;;6.45;5.10;;;;;;;;;;5071096;28;20181;-52
2021/04/27 04:37:56;;;;;;;8.15;5.43;;;;;;;;;;5070823;28;20626;-52
2021/04/27 04:40:22;;;;;;;11.20;5.47;;;;;;;;;;5070569;28;20169;-54
2021/04/27 04:42:48;;;;;;;7.90;5.15;;;;;;;;;;5070753;28;20928;-54
2021/04/27 04:45:15;;;;;;;8.37;5.20;;;;;;;;;;5070615;28;20199;-52
2021/04/27 04:47:43;;;;;;;7.13;5.72;;;;;;;;;;5070757;28;20502;-52
2021/04/27 04:50:10;;;;;;;6.93;5.50;;;;;;;;;;5070363;28;20171;-53
2021/04/27 04:52:36;;;;;;;24.00;12.32;;;;;;;;;;5070771;28;20272;-54
2021/04/27 04:55:04;;;;;;;25.90;12.43;;;;;;;;;;5070678;28;20169;-51
2021/04/27 04:57:30;;;;;;;7.25;6.03;;;;;;;;;;5070612;28;20225;-52
2021/04/27 04:59:56;;;;;;;10.40;6.33;;;;;;;;;;5070392;28;20200;-52
2021/04/27 05:02:22;;;;;;;11.30;6.00;;;;;;;;;;5073002;28;20453;-52
2021/04/27 05:04:48;;;;;;;6.30;5.20;;;;;;;;;;5077117;28;20451;-52
2021/04/27 05:07:14;;;;;;;7.20;5.40;;;;;;;;;;5077158;28;20414;-52
2021/04/27 05:09:42;;;;;;;7.57;5.38;;;;;;;;;;5076924;28;20399;-53
2021/04/27 05:12:09;;;;;;;9.00;5.72;;;;;;;;;;5077169;28;20169;-55
2021/04/27 05:14:37;;;;;;;6.15;5.55;;;;;;;;;;5077138;28;20248;-53
2021/04/27 05:17:03;;;;;;;8.35;4.90;;;;;;;;;;5077119;28;20237;-52
2021/04/27 05:19:35;;;;;;;5.85;5.28;;;;;;;;;;5076821;28;20184;-52
2021/04/27 05:22:02;;;;;;;7.35;5.35;;;;;;;;;;5077134;28;20228;-53
2021/04/27 05:24:28;;;;;;;8.77;5.30;;;;;;;;;;5076882;28;20202;-52
2021/04/27 05:26:54;;;;;;;9.13;5.55;;;;;;;;;;5077077;28;20193;-53
2021/04/27 05:29:21;;;;;;;6.57;5.57;;;;;;;;;;5076746;28;20197;-55
2021/04/27 05:31:49;;;;;;;7.22;4.60;;;;;;;;;;5076999;28;20188;-54
2021/04/27 05:34:15;;;;;;;7.57;5.00;;;;;;;;;;5076999;28;20215;-54
2021/04/27 05:36:42;;;;;;;5.07;4.55;;;;;;;;;;5076985;28;20170;-52
2021/04/27 05:39:07;;;;;;;8.15;5.22;;;;;;;;;;5076563;28;20284;-54
2021/04/27 05:41:33;;;;;;;5.23;4.73;;;;;;;;;;5076907;28;20250;-54
2021/04/27 05:44:00;;;;;;;14.73;6.63;;;;;;;;;;5076866;28;20973;-55
2021/04/27 05:46:26;;;;;;;7.47;4.75;;;;;;;;;;5076657;28;20397;-54
2021/04/27 05:48:52;;;;;;;7.70;4.30;;;;;;;;;;5076549;28;20192;-55
2021/04/27 05:51:18;;;;;;;5.80;4.70;;;;;;;;;;5076817;28;20765;-52
2021/04/27 05:53:44;;;;;;;5.40;4.90;;;;;;;;;;5076806;28;20171;-52
2021/04/27 05:56:10;;;;;;;5.40;4.83;;;;;;;;;;5076742;28;20898;-53
2021/04/27 05:58:36;;;;;;;10.47;4.87;;;;;;;;;;5076660;28;20441;-52
2021/04/27 06:01:03;;;;;;;5.17;4.50;;;;;;;;;;5076590;28;20404;-53
2021/04/27 06:03:29;;;;;;;5.47;4.38;;;;;;;;;;5076727;28;22314;-52
2021/04/27 06:05:55;;;;;;;5.03;4.10;;;;;;;;;;5076643;28;20203;-52
2021/04/27 06:08:21;;;;;;;6.43;4.20;;;;;;;;;;5076546;28;20467;-52
2021/04/27 06:10:47;;;;;;;5.80;4.27;;;;;;;;;;5076355;28;20408;-53
2021/04/27 06:13:13;;;;;;;4.53;4.13;;;;;;;;;;5076200;28;20508;-52
2021/04/27 06:15:39;;;;;;;11.27;4.97;;;;;;;;;;5073445;28;20421;-52
2021/04/27 06:18:05;;;;;;;7.20;3.73;;;;;;;;;;5073369;28;20189;-52
2021/04/27 06:20:31;;;;;;;5.73;4.43;;;;;;;;;;5073130;28;20411;-52
2021/04/27 06:22:57;;;;;;;8.63;4.10;;;;;;;;;;5073361;28;20439;-53
2021/04/27 06:25:23;;;;;;;4.83;3.63;;;;;;;;;;5073276;28;20452;-53
2021/04/27 06:27:49;;;;;;;4.53;4.13;;;;;;;;;;5073455;28;20475;-52
2021/04/27 06:30:15;;;;;;;6.30;4.10;;;;;;;;;;5073292;28;20479;-55
2021/04/27 06:32:41;;;;;;;3.97;3.67;;;;;;;;;;5073085;28;20407;-52
2021/04/27 06:35:08;;;;;;;6.30;4.13;;;;;;;;;;5072799;28;20448;-52
2021/04/27 06:37:34;;;;;;;6.07;3.87;;;;;;;;;;5072275;28;20828;-53
2021/04/27 06:40:00;;;;;;;4.43;3.37;;;;;;;;;;5072450;28;20399;-52
2021/04/27 06:42:26;;;;;;;4.70;4.30;;;;;;;;;;5054544;28;20425;-53
2021/04/27 06:44:52;;;;;;;5.03;3.93;;;;;;;;;;5072305;28;20454;-53
2021/04/27 06:47:18;;;;;;;5.20;3.50;;;;;;;;;;5072360;28;20406;-53
2021/04/27 06:49:44;;;;;;;6.40;4.77;;;;;;;;;;5071917;28;20890;-53
2021/04/27 06:52:10;;;;;;;6.30;3.67;;;;;;;;;;5072206;28;20400;-53
2021/04/27 06:54:36;;;;;;;3.93;3.60;;;;;;;;;;5072075;28;20404;-52
2021/04/27 06:57:03;;;;;;;4.90;3.47;;;;;;;;;;5072027;28;20407;-53
2021/04/27 06:59:32;;;;;;;6.13;3.17;;;;;;;;;;5071900;28;20400;-53
2021/04/27 07:01:59;;;;;;;5.80;3.13;;;;;;;;;;5071801;28;20797;-55
2021/04/27 07:04:25;;;;;;;4.80;3.37;;;;;;;;;;5071964;28;20448;-53
2021/04/27 07:06:51;;;;;;;6.37;3.90;;;;;;;;;;5071802;28;20744;-53
2021/04/27 07:09:17;;;;;;;4.77;3.97;;;;;;;;;;5071629;28;20416;-55
2021/04/27 07:11:43;;;;;;;3.13;2.77;;;;;;;;;;5071612;28;20407;-53
2021/04/27 07:14:08;;;;;;;7.80;2.70;;;;;;;;;;5071833;28;20491;-52
2021/04/27 07:16:34;;;;;;;6.50;2.60;;;;;;;;;;5071610;28;20415;-54
2021/04/27 07:19:00;;;;;;;3.27;2.97;;;;;;;;;;5071426;28;20439;-55
2021/04/27 07:21:26;;;;;;;3.43;2.50;;;;;;;;;;5071834;28;20442;-53
2021/04/27 07:23:52;;;;;;;6.90;3.50;;;;;;;;;;5071477;28;20515;-53
2021/04/27 07:26:18;;;;;;;4.13;2.80;;;;;;;;;;5071049;28;20479;-53
2021/04/27 07:28:44;;;;;;;3.53;2.73;;;;;;;;;;5071048;28;20507;-53
2021/04/27 07:31:10;;;;;;;3.23;3.03;;;;;;;;;;5071474;28;20401;-55
2021/04/27 07:33:36;;;;;;;3.17;2.87;;;;;;;;;;5071240;28;20400;-55
2021/04/27 07:36:03;;;;;;;2.83;2.50;;;;;;;;;;5071401;28;20480;-53
2021/04/27 07:38:29;;;;;;;7.90;2.57;;;;;;;;;;5071208;28;20532;-53
2021/04/27 07:40:54;;;;;;;14.97;3.03;;;;;;;;;;5070833;28;20854;-53
2021/04/27 07:43:21;;;;;;;4.47;2.23;;;;;;;;;;5071134;28;20401;-54
2021/04/27 07:45:47;;;;;;;3.13;2.87;;;;;;;;;;5070209;28;20458;-54
2021/04/27 07:48:13;;;;;;;2.97;2.77;;;;;;;;;;5053199;28;20510;-53
2021/04/27 07:50:39;;;;;;;4.10;2.70;;;;;;;;;;5071303;28;20403;-54
2021/04/27 07:53:06;;;;;;;3.20;2.90;;;;;;;;;;5069798;28;20383;-54
2021/04/27 07:55:32;;;;;;;3.27;2.90;;;;;;;;;;5071487;28;20415;-55
2021/04/27 07:57:59;;;;;;;5.70;2.43;;;;;;;;;;5070622;28;20439;-53
2021/04/27 08:00:26;;;;;;;4.53;2.77;;;;;;;;;;5071112;28;20404;-53
2021/04/27 08:02:52;;;;;;;2.60;2.40;;;;;;;;;;5071232;28;20896;-53
2021/04/27 08:05:19;;;;;;;2.70;2.50;;;;;;;;;;5071295;28;20490;-53
2021/04/27 08:07:45;;;;;;;2.73;2.53;;;;;;;;;;5071138;28;20959;-54
2021/04/27 08:10:14;;;;;;;4.03;2.43;;;;;;;;;;5070975;28;20407;-54
2021/04/27 08:12:42;;;;;;;16.47;12.70;;;;;;;;;;5071213;28;20404;-53
2021/04/27 08:15:09;;;;;;;10.97;9.33;;;;;;;;;;5070815;28;20566;-54
2021/04/27 08:17:36;;;;;;;8.70;6.17;;;;;;;;;;5070949;28;20436;-54
2021/04/27 08:20:02;;;;;;;7.20;4.70;;;;;;;;;;5070940;28;20934;-54
2021/04/27 08:22:28;;;;;;;5.10;3.07;;;;;;;;;;5071160;28;20401;-54
2021/04/27 08:24:54;;;;;;;3.47;3.03;;;;;;;;;;5070202;28;20456;-54
2021/04/27 08:27:20;;;;;;;3.77;2.73;;;;;;;;;;5070993;28;20513;-54
2021/04/27 08:29:46;;;;;;;4.70;2.47;;;;;;;;;;5070719;28;20450;-54
2021/04/27 08:32:12;;;;;;;3.60;2.87;;;;;;;;;;5071008;28;20405;-54
2021/04/27 08:34:38;;;;;;;3.50;3.03;;;;;;;;;;5070074;28;20416;-54
2021/04/27 08:37:04;;;;;;;2.67;2.47;;;;;;;;;;5068595;28;20419;-54
2021/04/27 08:39:30;;;;;;;3.87;2.60;;;;;;;;;;5070048;28;20878;-53
2021/04/27 08:41:57;;;;;;;2.83;2.50;;;;;;;;;;5069321;28;20424;-54
2021/04/27 08:44:25;;;;;;;4.03;2.30;;;;;;;;;;5070692;28;20452;-54
2021/04/27 08:46:51;;;;;;;2.33;2.17;;;;;;;;;;5070388;28;20993;-54
2021/04/27 08:49:17;;;;;;;2.47;2.27;;;;;;;;;;5070050;28;20424;-54
2021/04/27 08:51:44;;;;;;;2.27;2.17;;;;;;;;;;5069523;28;20825;-54
2021/04/27 08:54:10;;;;;;;2.40;2.20;;;;;;;;;;5069215;28;20499;-54
2021/04/27 08:56:36;;;;;;;2.50;2.30;;;;;;;;;;5069782;28;20504;-57
2021/04/27 08:59:02;;;;;;;2.57;2.37;;;;;;;;;;5069609;28;20425;-56
2021/04/27 09:01:28;;;;;;;2.40;2.20;;;;;;;;;;5070453;28;20469;-55
2021/04/27 09:03:54;;;;;;;2.60;2.40;;;;;;;;;;5070461;28;20448;-56
2021/04/27 09:06:21;;;;;;;2.70;2.07;;;;;;;;;;5070533;28;20464;-55
2021/04/27 09:08:48;;;;;;;2.40;2.20;;;;;;;;;;5070323;28;20425;-54
2021/04/27 09:11:27;;;;;;;5.40;2.50;;;;;;;;;;5069892;28;20421;-56
2021/04/27 09:14:12;;;;;;;2.40;2.20;;;;;;;;;;5070433;28;20407;-56
2021/04/27 09:16:48;;;;;;;4.17;2.53;;;;;;;;;;5069750;28;20906;-55
2021/04/27 09:19:31;;;;;;;4.33;2.73;;;;;;;;;;5068376;28;20837;-56
2021/04/27 09:22:09;;;;;;;6.50;2.67;;;;;;;;;;5068969;28;20397;-54
2021/04/27 09:24:40;;;;;;;3.17;2.80;;;;;;;;;;5069484;28;20451;-55
2021/04/27 09:27:07;;;;;;;2.60;2.43;;;;;;;;;;5069223;28;20401;-54
2021/04/27 09:29:35;;;;;;;2.83;2.63;;;;;;;;;;5069445;28;20472;-56
2021/04/27 09:32:01;;;;;;;2.60;2.40;;;;;;;;;;5069967;28;20814;-54
2021/04/27 09:34:29;;;;;;;3.27;2.10;;;;;;;;;;5070225;28;20401;-55
2021/04/27 09:36:59;;;;;;;4.43;2.30;;;;;;;;;;5070169;28;20427;-54
2021/04/27 09:39:37;;;;;;;2.47;2.27;;;;;;;;;;5062638;28;20861;-57
2021/04/27 09:42:06;;;;;;;4.53;2.70;;;;;;;;;;5070232;28;20412;-56
2021/04/27 09:44:34;;;;;;;5.67;2.60;;;;;;;;;;5069494;28;20455;-55
2021/04/27 09:47:14;;;;;;;3.20;2.27;;;;;;;;;;5052631;28;20439;-55
2021/04/27 09:49:40;;;;;;;2.43;2.20;;;;;;;;;;5072705;28;20495;-54
2021/04/27 09:52:12;;;;;;;3.90;2.97;;;;;;;;;;5073257;28;20407;-54
2021/04/27 09:54:58;;;;;;;2.50;2.30;;;;;;;;;;5073827;28;20942;-54
2021/04/27 09:57:25;;;;;;;4.90;2.47;;;;;;;;;;5073614;28;20428;-54
2021/04/27 09:59:51;;;;;;;7.90;2.50;;;;;;;;;;5073395;28;20388;-54
2021/04/27 10:02:20;;;;;;;2.30;2.10;;;;;;;;;;5073318;28;20469;-56
2021/04/27 10:04:46;;;;;;;3.30;2.40;;;;;;;;;;5073897;28;20480;-54
2021/04/27 10:07:14;;;;;;;2.90;2.23;;;;;;;;;;5073585;28;20400;-55
2021/04/27 10:09:40;;;;;;;3.57;2.37;;;;;;;;;;5073125;28;20412;-56
2021/04/27 10:12:07;;;;;;;5.20;2.57;;;;;;;;;;5073534;28;20408;-55
2021/04/27 10:14:35;;;;;;;2.47;2.27;;;;;;;;;;5073489;28;20408;-56
2021/04/27 10:17:02;;;;;;;4.70;2.80;;;;;;;;;;5073437;28;20404;-54
2021/04/27 10:19:28;;;;;;;5.60;2.53;;;;;;;;;;5073294;28;20492;-54
2021/04/27 10:21:54;;;;;;;4.50;2.10;;;;;;;;;;5072184;28;20413;-55
2021/04/27 10:24:24;;;;;;;4.17;2.40;;;;;;;;;;5073378;28;20466;-56
2021/04/27 10:26:51;;;;;;;3.30;2.50;;;;;;;;;;5073388;28;20471;-58
2021/04/27 10:29:25;;;;;;;2.77;2.57;;;;;;;;;;5072993;28;20466;-55
2021/04/27 10:32:13;;;;;;;3.30;3.00;;;;;;;;;;5073619;28;20408;-55
2021/04/27 10:34:59;;;;;;;5.23;2.67;;;;;;;;;;5073219;28;20474;-54
2021/04/27 10:37:26;;;;;;;2.97;2.77;;;;;;;;;;5073288;28;20844;-55
2021/04/27 10:39:52;;;;;;;4.40;2.60;;;;;;;;;;5072683;28;20411;-54
2021/04/27 10:42:28;;;;;;;3.90;2.97;;;;;;;;;;5073045;28;20405;-54
2021/04/27 10:45:05;;;;;;;3.73;2.43;;;;;;;;;;5072864;28;20470;-54
2021/04/27 10:47:41;;;;;;;3.10;2.80;;;;;;;;;;5072679;28;20420;-57
2021/04/27 10:50:07;;;;;;;4.03;3.10;;;;;;;;;;5072646;28;20442;-56
2021/04/27 10:52:39;;;;;;;2.50;2.40;;;;;;;;;;5072714;28;20400;-55
2021/04/27 10:55:24;;;;;;;3.07;2.87;;;;;;;;;;5072906;28;20769;-55
2021/04/27 10:57:51;;;;;;;3.23;3.03;;;;;;;;;;5072598;28;20455;-54
2021/04/27 11:00:38;;;;;;;3.40;2.90;;;;;;;;;;5071573;28;20408;-56
2021/04/27 11:03:14;;;;;;;3.13;2.90;;;;;;;;;;5072577;28;20397;-55
2021/04/27 11:05:51;;;;;;;4.17;3.00;;;;;;;;;;5072522;28;20543;-54
2021/04/27 11:08:17;;;;;;;5.00;3.40;;;;;;;;;;5072368;28;20424;-54
2021/04/27 11:10:44;;;;;;;3.30;3.00;;;;;;;;;;5072186;28;20890;-54
2021/04/27 11:13:10;;;;;;;3.13;2.63;;;;;;;;;;5071670;28;21093;-54
2021/04/27 11:15:37;;;;;;;3.60;2.50;;;;;;;;;;5071685;28;20931;-55
2021/04/27 11:18:11;;;;;;;5.93;2.53;;;;;;;;;;5072093;28;20443;-55
2021/04/27 11:20:43;;;;;;;5.70;2.47;;;;;;;;;;5071946;28;21030;-56
2021/04/27 11:23:20;;;;;;;3.27;2.80;;;;;;;;;;5072155;28;20780;-57
2021/04/27 11:25:46;;;;;;;4.67;2.70;;;;;;;;;;5072193;28;21046;-54
2021/04/27 11:28:16;;;;;;;5.20;2.40;;;;;;;;;;5071937;28;20511;-54
2021/04/27 11:30:45;;;;;;;2.40;2.20;;;;;;;;;;5071860;28;20400;-57
2021/04/27 11:33:11;;;;;;;2.97;2.77;;;;;;;;;;5071894;28;20458;-57
2021/04/27 11:35:41;;;;;;;5.57;3.23;;;;;;;;;;5072022;28;20408;-55
2021/04/27 11:38:07;;;;;;;4.80;2.40;;;;;;;;;;5071744;28;20502;-55
2021/04/27 11:40:35;;;;;;;2.80;2.40;;;;;;;;;;5071623;28;20404;-57
2021/04/27 11:43:11;;;;;;;4.80;2.70;;;;;;;;;;5071615;28;20405;-55
2021/04/27 11:45:41;;;;;;;2.73;2.53;;;;;;;;;;5071679;28;20458;-55
2021/04/27 11:48:13;;;;;;;6.43;2.53;;;;;;;;;;5071632;28;20427;-56
2021/04/27 11:50:40;;;;;;;3.77;3.00;;;;;;;;;;5071442;28;20396;-54
2021/04/27 11:53:07;;;;;;;2.93;2.43;;;;;;;;;;5071516;28;20400;-55
2021/04/27 11:55:45;;;;;;;2.53;2.40;;;;;;;;;;5071469;28;20397;-55
2021/04/27 11:58:23;;;;;;;2.63;2.43;;;;;;;;;;5071362;28;20448;-55
2021/04/27 12:00:55;;;;;;;3.53;2.97;;;;;;;;;;5071157;28;20443;-54
2021/04/27 12:03:32;;;;;;;8.37;2.70;;;;;;;;;;5071426;28;20416;-55
2021/04/27 12:06:00;;;;;;;3.20;2.93;;;;;;;;;;5071414;28;20477;-56
2021/04/27 12:08:28;;;;;;;3.30;2.83;;;;;;;;;;5071249;28;20943;-55
2021/04/27 12:11:13;;;;;;;3.00;2.80;;;;;;;;;;5070835;28;20484;-57
2021/04/27 12:13:49;;;;;;;3.57;3.27;;;;;;;;;;5071337;28;20389;-56
2021/04/27 12:16:19;;;;;;;3.00;2.80;;;;;;;;;;5071188;28;20403;-55
2021/04/27 12:18:53;;;;;;;4.80;2.70;;;;;;;;;;5070916;28;21173;-57
2021/04/27 12:21:25;;;;;;;5.10;2.97;;;;;;;;;;5071063;28;20760;-57
2021/04/27 12:24:10;;;;;;;6.30;2.93;;;;;;;;;;5071203;28;21034;-56
2021/04/27 12:26:38;;;;;;;3.30;2.70;;;;;;;;;;5071169;28;20407;-55
2021/04/27 12:29:04;;;;;;;5.03;3.10;;;;;;;;;;5070913;28;20507;-54
2021/04/27 12:31:32;;;;;;;2.90;2.60;;;;;;;;;;5071081;28;20396;-54
2021/04/27 12:33:59;;;;;;;4.07;3.00;;;;;;;;;;5071258;28;20401;-55
2021/04/27 12:36:40;;;;;;;3.47;2.67;;;;;;;;;;5071242;28;20404;-59
2021/04/27 12:39:24;;;;;;;5.43;2.97;;;;;;;;;;5070839;28;20455;-54
2021/04/27 12:41:52;;;;;;;2.97;2.77;;;;;;;;;;5071038;28;20487;-55
2021/04/27 12:44:26;;;;;;;3.63;2.83;;;;;;;;;;5070847;28;20937;-56
2021/04/27 12:46:52;;;;;;;2.90;2.60;;;;;;;;;;5070888;28;20419;-55
2021/04/27 12:49:25;;;;;;;3.10;2.90;;;;;;;;;;5070551;28;20934;-54
2021/04/27 12:51:55;;;;;;;4.20;2.63;;;;;;;;;;5070747;28;20397;-56
2021/04/27 12:54:29;;;;;;;5.77;2.17;;;;;;;;;;5070764;28;20484;-55
2021/04/27 12:57:22;;;;;;;3.43;3.13;;;;;;;;;;5070653;28;20951;-56
2021/04/27 12:59:53;;;;;;;2.73;2.53;;;;;;;;;;5067561;28;20446;-56
2021/04/27 13:02:19;;;;;;;3.30;2.23;;;;;;;;;;5070585;28;20401;-54
2021/04/27 13:04:46;;;;;;;2.70;2.50;;;;;;;;;;5070562;28;20986;-56
2021/04/27 13:07:24;;;;;;;6.10;3.13;;;;;;;;;;5070521;28;20400;-56
2021/04/27 13:09:50;;;;;;;7.60;2.90;;;;;;;;;;5070274;28;20465;-55
2021/04/27 13:12:16;;;;;;;2.50;2.40;;;;;;;;;;5070207;28;20985;-56
2021/04/27 13:14:43;;;;;;;4.03;3.03;;;;;;;;;;5070393;28;20436;-55
2021/04/27 13:17:23;;;;;;;2.73;2.63;;;;;;;;;;5070311;28;20888;-54
2021/04/27 13:19:51;;;;;;;6.80;3.00;;;;;;;;;;5070147;28;20404;-54
2021/04/27 13:22:19;;;;;;;5.53;2.70;;;;;;;;;;5070220;28;20407;-54
2021/04/27 13:24:46;;;;;;;3.87;3.27;;;;;;;;;;5072252;28;20533;-54
2021/04/27 13:27:12;;;;;;;3.10;2.90;;;;;;;;;;5074150;28;20550;-56
2021/04/27 13:29:40;;;;;;;3.37;2.93;;;;;;;;;;5074148;28;20492;-55
2021/04/27 13:32:35;;;;;;;3.20;3.00;;;;;;;;;;5056027;28;20412;-56
2021/04/27 13:35:20;;;;;;;3.23;2.20;;;;;;;;;;5056974;28;20470;-54
2021/04/27 13:37:46;;;;;;;4.47;2.70;;;;;;;;;;5073905;28;20442;-56
2021/04/27 13:40:12;;;;;;;3.00;2.73;;;;;;;;;;5073744;28;20738;-56
2021/04/27 13:42:39;;;;;;;4.10;2.90;;;;;;;;;;5073971;28;20397;-55
2021/04/27 13:45:05;;;;;;;4.13;3.40;;;;;;;;;;5073943;28;20460;-55
2021/04/27 13:47:33;;;;;;;4.23;3.10;;;;;;;;;;5073368;28;20424;-55
2021/04/27 13:49:59;;;;;;;5.60;2.70;;;;;;;;;;5073726;28;20434;-55
2021/04/27 13:52:25;;;;;;;2.87;2.67;;;;;;;;;;5073728;28;20405;-56
2021/04/27 13:54:53;;;;;;;6.13;3.20;;;;;;;;;;5073671;28;20421;-55
2021/04/27 13:57:19;;;;;;;3.30;3.00;;;;;;;;;;5073813;28;20762;-55
2021/04/27 13:59:45;;;;;;;3.60;3.20;;;;;;;;;;5073444;28;20399;-56
2021/04/27 14:02:11;;;;;;;6.83;3.47;;;;;;;;;;5073752;28;20414;-54
2021/04/27 14:04:38;;;;;;;7.00;3.50;;;;;;;;;;5073486;28;20460;-54
2021/04/27 14:07:04;;;;;;;4.20;3.10;;;;;;;;;;5073588;28;20397;-54
2021/04/27 14:09:30;;;;;;;3.33;2.90;;;;;;;;;;5073188;28;20411;-55
2021/04/27 14:11:56;;;;;;;5.33;3.20;;;;;;;;;;5073720;28;20896;-55
2021/04/27 14:14:22;;;;;;;3.77;3.57;;;;;;;;;;5073624;28;20442;-55
2021/04/27 14:16:48;;;;;;;3.50;3.20;;;;;;;;;;5073590;28;20461;-54
2021/04/27 14:19:14;;;;;;;3.17;2.77;;;;;;;;;;5073219;28;20428;-54
2021/04/27 14:21:40;;;;;;;4.60;3.33;;;;;;;;;;5073413;28;20415;-55
2021/04/27 14:24:06;;;;;;;3.60;3.30;;;;;;;;;;5073034;28;20486;-55
2021/04/27 14:26:32;;;;;;;2.93;2.77;;;;;;;;;;5073326;28;20458;-54
2021/04/27 14:28:58;;;;;;;4.90;3.10;;;;;;;;;;5072865;28;20416;-54
2021/04/27 14:31:24;;;;;;;3.53;3.30;;;;;;;;;;5073159;28;20400;-54
2021/04/27 14:33:50;;;;;;;4.47;3.50;;;;;;;;;;5073051;28;20408;-56
2021/04/27 14:36:18;;;;;;;6.67;3.03;;;;;;;;;;5071754;28;20410;-58
2021/04/27 14:38:44;;;;;;;3.60;3.27;;;;;;;;;;5072555;28;20444;-54
2021/04/27 14:41:09;;;;;;;3.77;2.97;;;;;;;;;;5072927;28;20411;-54
2021/04/27 14:43:36;;;;;;;6.87;4.17;;;;;;;;;;5072918;28;20802;-54
2021/04/27 14:46:02;;;;;;;3.67;3.47;;;;;;;;;;5072886;28;20489;-54